METAR Data
IDs: Format: Raw Decoded Include TAF

Data at: 0149 UTC 19 Oct 2021

KRUE 190053Z AUTO 00000KT 10SM CLR 16/07 A3008 RMK AO2 SLP184 T01560072
KRUE 182353Z AUTO 09003KT 10SM CLR 18/07 A3007 RMK AO2 SLP180 T01780067 10233 20178 55007
KRUE 182253Z AUTO VRB03KT 10SM CLR 21/07 A3007 RMK AO2 SLP179 T02110067
KRUE 182153Z AUTO VRB06KT 10SM CLR 23/07 A3008 RMK AO2 SLP181 T02280067
KRUE 182053Z AUTO VRB05KT 10SM CLR 23/07 A3009 RMK AO2 SLP186 T02280067 56029
KRUE 181953Z AUTO 00000KT 10SM CLR 23/07 A3011 RMK AO2 SLP192 T02330072
KRUE 181853Z AUTO VRB04KT 10SM CLR 22/08 A3014 RMK AO2 SLP201 T02220078
KRUE 181753Z AUTO 12004KT 10SM CLR 21/08 A3018 RMK AO2 SLP216 T02110078 10211 20050 58016
KRUE 181653Z AUTO 07003KT 10SM CLR 19/08 A3021 RMK AO2 SLP224 T01890078
KRUE 181553Z AUTO VRB04KT 10SM CLR 17/08 A3023 RMK AO2 SLP231 T01720083
KRUE 181453Z AUTO 11004KT 10SM CLR 14/09 A3023 RMK AO2 SLP232 T01390089 53012
KRUE 181353Z AUTO 00000KT 10SM CLR 09/08 A3022 RMK AO2 SLP230 T00940078
KRUE 181253Z AUTO 00000KT 8SM CLR 06/05 A3020 RMK AO2 SLP222 T00560050
KRUE 181153Z AUTO 00000KT 10SM CLR 06/04 A3019 RMK AO2 SLP220 T00560044 10078 20050 51007
KRUE 181053Z AUTO 00000KT 10SM CLR 06/05 A3019 RMK AO2 SLP218 T00610050
KRUE 180953Z AUTO 00000KT 10SM CLR 06/06 A3017 RMK AO2 SLP213 T00610056
KRUE 180853Z AUTO 00000KT 10SM CLR 06/06 A3017 RMK AO2 SLP211 T00610056 58008
KRUE 180753Z AUTO 00000KT 10SM CLR 07/06 A3017 RMK AO2 SLP213 T00720061
KRUE 180653Z AUTO 00000KT 10SM CLR 08/07 A3019 RMK AO2 SLP218 T00780067
KRUE 180553Z AUTO 00000KT 10SM CLR 08/06 A3019 RMK AO2 SLP220 T00780061 10156 20078 402390039 58004
KRUE 180453Z AUTO 00000KT 10SM CLR 08/07 A3020 RMK AO2 SLP222 T00830067
KRUE 180353Z AUTO 00000KT 10SM CLR 09/07 A3020 RMK AO2 SLP224 T00890067
KRUE 180253Z AUTO 00000KT 10SM CLR 10/06 A3021 RMK AO2 SLP225 T01000061 53005
KRUE 180153Z AUTO 00000KT 10SM CLR 11/07 A3020 RMK AO2 SLP223 T01110067
KRUE 180053Z AUTO 00000KT 10SM CLR 13/06 A3019 RMK AO2 SLP221 T01280061
KRUE 172353Z AUTO 00000KT 10SM CLR 16/06 A3019 RMK AO2 SLP220 T01560061 10239 20156 56005
KRUE 172253Z AUTO 29003KT 10SM CLR 22/03 A3019 RMK AO2 SLP219 T02170033
KRUE 172153Z AUTO 33007KT 10SM CLR 24/03 A3019 RMK AO2 SLP220 T02390033
KRUE 172053Z AUTO 33005KT 10SM CLR 23/03 A3021 RMK AO2 SLP224 T02330028 56029
KRUE 171953Z AUTO 24004KT 10SM CLR 22/04 A3023 RMK AO2 SLP231 T02220044
KRUE 171853Z AUTO VRB04KT 10SM CLR 22/04 A3025 RMK AO2 SLP241 T02170039
KRUE 171753Z AUTO VRB03KT 10SM CLR 21/06 A3029 RMK AO2 SLP254 T02060056 10206 20039 58013
KRUE 171653Z AUTO 00000KT 10SM CLR 18/08 A3032 RMK AO2 SLP262 T01830078
KRUE 171553Z AUTO 00000KT 10SM CLR 16/07 A3033 RMK AO2 SLP266 T01610072
KRUE 171453Z AUTO 00000KT 10SM CLR 12/08 A3033 RMK AO2 SLP268 T01220078 51006
KRUE 171353Z AUTO 00000KT 10SM CLR 09/07 A3033 RMK AO2 SLP267 T00890072